sensor_id;sensor_type;location;lat;lon;timestamp;temperature;humidity
11639;DHT22;5875;35.940;126.892;2024-01-30T00:02:03;2.90;99.90
11639;DHT22;5875;35.940;126.892;2024-01-30T00:04:30;3.40;99.90
11639;DHT22;5875;35.940;126.892;2024-01-30T00:06:58;3.90;99.90
11639;DHT22;5875;35.940;126.892;2024-01-30T00:09:25;4.10;99.90
11639;DHT22;5875;35.940;126.892;2024-01-30T00:11:52;4.40;99.90
11639;DHT22;5875;35.940;126.892;2024-01-30T00:14:19;5.00;99.90
11639;DHT22;5875;35.940;126.892;2024-01-30T00:16:50;5.40;99.90
11639;DHT22;5875;35.940;126.892;2024-01-30T00:19:17;5.90;99.90
11639;DHT22;5875;35.940;126.892;2024-01-30T00:21:44;5.90;99.90
11639;DHT22;5875;35.940;126.892;2024-01-30T00:24:11;6.20;99.90
11639;DHT22;5875;35.940;126.892;2024-01-30T00:26:38;6.20;99.90
11639;DHT22;5875;35.940;126.892;2024-01-30T00:29:05;7.00;99.90
11639;DHT22;5875;35.940;126.892;2024-01-30T00:31:32;7.50;99.90
11639;DHT22;5875;35.940;126.892;2024-01-30T00:34:00;7.50;99.90
11639;DHT22;5875;35.940;126.892;2024-01-30T00:36:27;7.80;99.90
11639;DHT22;5875;35.940;126.892;2024-01-30T00:38:56;8.30;99.90
11639;DHT22;5875;35.940;126.892;2024-01-30T00:41:23;8.90;99.90
11639;DHT22;5875;35.940;126.892;2024-01-30T00:43:50;9.10;99.90
11639;DHT22;5875;35.940;126.892;2024-01-30T00:46:20;9.20;99.90
11639;DHT22;5875;35.940;126.892;2024-01-30T00:48:47;9.50;99.90
11639;DHT22;5875;35.940;126.892;2024-01-30T00:51:15;9.80;99.90
11639;DHT22;5875;35.940;126.892;2024-01-30T00:53:42;9.80;99.90
11639;DHT22;5875;35.940;126.892;2024-01-30T00:56:09;9.60;99.90
11639;DHT22;5875;35.940;126.892;2024-01-30T00:58:36;9.80;99.90
11639;DHT22;5875;35.940;126.892;2024-01-30T01:01:03;10.20;99.90
11639;DHT22;5875;35.940;126.892;2024-01-30T01:03:30;10.40;99.90
11639;DHT22;5875;35.940;126.892;2024-01-30T01:05:57;10.60;99.90
11639;DHT22;5875;35.940;126.892;2024-01-30T01:08:24;10.80;99.90
11639;DHT22;5875;35.940;126.892;2024-01-30T01:10:52;10.90;99.90
11639;DHT22;5875;35.940;126.892;2024-01-30T01:13:19;10.70;99.90
11639;DHT22;5875;35.940;126.892;2024-01-30T01:15:46;10.90;99.90
11639;DHT22;5875;35.940;126.892;2024-01-30T01:18:13;11.40;99.90
11639;DHT22;5875;35.940;126.892;2024-01-30T01:20:40;11.30;99.90
11639;DHT22;5875;35.940;126.892;2024-01-30T01:23:07;11.50;98.90
11639;DHT22;5875;35.940;126.892;2024-01-30T01:25:34;12.00;99.10
11639;DHT22;5875;35.940;126.892;2024-01-30T01:28:04;12.10;94.90
11639;DHT22;5875;35.940;126.892;2024-01-30T01:30:32;12.10;90.70
11639;DHT22;5875;35.940;126.892;2024-01-30T01:32:59;12.40;82.90
11639;DHT22;5875;35.940;126.892;2024-01-30T01:35:28;12.30;71.90
11639;DHT22;5875;35.940;126.892;2024-01-30T01:37:55;12.10;60.40
11639;DHT22;5875;35.940;126.892;2024-01-30T01:40:28;12.30;56.00
11639;DHT22;5875;35.940;126.892;2024-01-30T01:42:55;12.30;48.70
11639;DHT22;5875;35.940;126.892;2024-01-30T01:45:23;12.50;45.20
11639;DHT22;5875;35.940;126.892;2024-01-30T01:47:54;12.60;36.30
11639;DHT22;5875;35.940;126.892;2024-01-30T01:50:22;12.60;31.40
11639;DHT22;5875;35.940;126.892;2024-01-30T01:52:50;12.60;24.80
11639;DHT22;5875;35.940;126.892;2024-01-30T01:55:19;13.00;22.50
11639;DHT22;5875;35.940;126.892;2024-01-30T01:57:52;13.00;16.40
11639;DHT22;5875;35.940;126.892;2024-01-30T02:00:20;13.00;12.80
11639;DHT22;5875;35.940;126.892;2024-01-30T02:02:47;12.70;8.50
11639;DHT22;5875;35.940;126.892;2024-01-30T02:05:16;12.60;5.70
11639;DHT22;5875;35.940;126.892;2024-01-30T02:07:44;12.90;5.50
11639;DHT22;5875;35.940;126.892;2024-01-30T02:10:11;13.10;1.10
11639;DHT22;5875;35.940;126.892;2024-01-30T02:12:39;12.80;1.00
11639;DHT22;5875;35.940;126.892;2024-01-30T02:15:06;12.60;1.00
11639;DHT22;5875;35.940;126.892;2024-01-30T02:17:34;12.80;1.00
11639;DHT22;5875;35.940;126.892;2024-01-30T02:20:01;12.80;1.00
11639;DHT22;5875;35.940;126.892;2024-01-30T02:22:30;13.40;1.00
11639;DHT22;5875;35.940;126.892;2024-01-30T02:24:57;13.60;1.00
11639;DHT22;5875;35.940;126.892;2024-01-30T02:27:24;13.30;1.00
11639;DHT22;5875;35.940;126.892;2024-01-30T02:29:52;13.10;1.00
11639;DHT22;5875;35.940;126.892;2024-01-30T02:32:19;12.90;1.00
11639;DHT22;5875;35.940;126.892;2024-01-30T02:34:46;13.10;1.00
11639;DHT22;5875;35.940;126.892;2024-01-30T02:37:13;12.80;1.00
11639;DHT22;5875;35.940;126.892;2024-01-30T02:39:40;12.90;1.00
11639;DHT22;5875;35.940;126.892;2024-01-30T02:42:07;12.90;1.00
11639;DHT22;5875;35.940;126.892;2024-01-30T02:44:37;12.90;1.00
11639;DHT22;5875;35.940;126.892;2024-01-30T02:47:04;12.90;1.00
11639;DHT22;5875;35.940;126.892;2024-01-30T02:49:31;12.90;1.00
11639;DHT22;5875;35.940;126.892;2024-01-30T02:51:58;12.80;1.00
11639;DHT22;5875;35.940;126.892;2024-01-30T02:54:26;12.60;1.00
11639;DHT22;5875;35.940;126.892;2024-01-30T02:56:57;12.60;1.00
11639;DHT22;5875;35.940;126.892;2024-01-30T02:59:24;12.50;1.00
11639;DHT22;5875;35.940;126.892;2024-01-30T03:01:51;12.50;1.00
11639;DHT22;5875;35.940;126.892;2024-01-30T03:04:18;12.70;1.00
11639;DHT22;5875;35.940;126.892;2024-01-30T03:06:46;12.90;1.00
11639;DHT22;5875;35.940;126.892;2024-01-30T03:09:19;13.00;1.00
11639;DHT22;5875;35.940;126.892;2024-01-30T03:11:46;12.70;1.00
11639;DHT22;5875;35.940;126.892;2024-01-30T03:14:16;12.70;1.00
11639;DHT22;5875;35.940;126.892;2024-01-30T03:16:43;12.70;1.00
11639;DHT22;5875;35.940;126.892;2024-01-30T03:19:10;12.60;1.00
11639;DHT22;5875;35.940;126.892;2024-01-30T03:21:37;12.80;1.00
11639;DHT22;5875;35.940;126.892;2024-01-30T03:24:04;12.70;1.00
11639;DHT22;5875;35.940;126.892;2024-01-30T03:26:32;12.80;1.00
11639;DHT22;5875;35.940;126.892;2024-01-30T03:28:59;12.80;1.00
11639;DHT22;5875;35.940;126.892;2024-01-30T03:31:26;12.80;1.00
11639;DHT22;5875;35.940;126.892;2024-01-30T03:33:53;13.20;1.00
11639;DHT22;5875;35.940;126.892;2024-01-30T03:36:20;13.20;1.00
11639;DHT22;5875;35.940;126.892;2024-01-30T03:38:47;13.30;1.00
11639;DHT22;5875;35.940;126.892;2024-01-30T03:41:14;13.30;1.00
11639;DHT22;5875;35.940;126.892;2024-01-30T03:43:42;13.10;1.00
11639;DHT22;5875;35.940;126.892;2024-01-30T03:46:09;13.40;1.00
11639;DHT22;5875;35.940;126.892;2024-01-30T03:48:36;13.10;1.00
11639;DHT22;5875;35.940;126.892;2024-01-30T03:51:03;13.10;1.00
11639;DHT22;5875;35.940;126.892;2024-01-30T03:53:33;13.20;1.00
11639;DHT22;5875;35.940;126.892;2024-01-30T03:56:00;13.00;1.00
11639;DHT22;5875;35.940;126.892;2024-01-30T03:58:27;13.40;1.00
11639;DHT22;5875;35.940;126.892;2024-01-30T04:00:54;13.20;1.00
11639;DHT22;5875;35.940;126.892;2024-01-30T04:03:22;13.20;1.00
11639;DHT22;5875;35.940;126.892;2024-01-30T04:05:49;13.20;1.00
11639;DHT22;5875;35.940;126.892;2024-01-30T04:08:16;13.20;1.00
11639;DHT22;5875;35.940;126.892;2024-01-30T04:10:43;13.20;1.00
11639;DHT22;5875;35.940;126.892;2024-01-30T04:13:10;13.00;1.00
11639;DHT22;5875;35.940;126.892;2024-01-30T04:15:38;13.20;1.00
11639;DHT22;5875;35.940;126.892;2024-01-30T04:18:05;13.40;1.00
11639;DHT22;5875;35.940;126.892;2024-01-30T04:20:32;13.40;1.00
11639;DHT22;5875;35.940;126.892;2024-01-30T04:23:00;13.30;1.00
11639;DHT22;5875;35.940;126.892;2024-01-30T04:25:27;13.40;1.00
11639;DHT22;5875;35.940;126.892;2024-01-30T04:27:54;13.50;1.00
11639;DHT22;5875;35.940;126.892;2024-01-30T04:30:21;13.50;1.00
11639;DHT22;5875;35.940;126.892;2024-01-30T04:32:48;13.40;1.00
11639;DHT22;5875;35.940;126.892;2024-01-30T04:35:15;13.50;1.00
11639;DHT22;5875;35.940;126.892;2024-01-30T04:37:47;13.20;1.00
11639;DHT22;5875;35.940;126.892;2024-01-30T04:40:14;13.20;1.00
11639;DHT22;5875;35.940;126.892;2024-01-30T04:42:41;13.10;1.00
11639;DHT22;5875;35.940;126.892;2024-01-30T04:45:08;13.30;1.00
11639;DHT22;5875;35.940;126.892;2024-01-30T04:47:35;13.40;1.00
11639;DHT22;5875;35.940;126.892;2024-01-30T04:50:03;13.60;1.00
11639;DHT22;5875;35.940;126.892;2024-01-30T04:52:31;13.50;1.00
11639;DHT22;5875;35.940;126.892;2024-01-30T04:54:58;13.20;1.00
11639;DHT22;5875;35.940;126.892;2024-01-30T04:57:25;13.10;1.00
11639;DHT22;5875;35.940;126.892;2024-01-30T04:59:52;13.10;1.00
11639;DHT22;5875;35.940;126.892;2024-01-30T05:02:20;13.30;1.00
11639;DHT22;5875;35.940;126.892;2024-01-30T05:04:47;13.00;1.00
11639;DHT22;5875;35.940;126.892;2024-01-30T05:07:14;13.00;1.00
11639;DHT22;5875;35.940;126.892;2024-01-30T05:09:41;13.00;1.00
11639;DHT22;5875;35.940;126.892;2024-01-30T05:12:08;13.20;1.00
11639;DHT22;5875;35.940;126.892;2024-01-30T05:14:35;13.30;1.00
11639;DHT22;5875;35.940;126.892;2024-01-30T05:17:02;13.20;1.00
11639;DHT22;5875;35.940;126.892;2024-01-30T05:19:29;13.20;1.00
11639;DHT22;5875;35.940;126.892;2024-01-30T05:21:56;13.20;1.00
11639;DHT22;5875;35.940;126.892;2024-01-30T05:24:23;13.40;1.00
11639;DHT22;5875;35.940;126.892;2024-01-30T05:26:50;13.40;1.00
11639;DHT22;5875;35.940;126.892;2024-01-30T05:29:18;13.30;1.00
11639;DHT22;5875;35.940;126.892;2024-01-30T05:31:45;13.30;1.00
11639;DHT22;5875;35.940;126.892;2024-01-30T05:34:12;13.20;1.00
11639;DHT22;5875;35.940;126.892;2024-01-30T05:36:42;13.50;1.00
11639;DHT22;5875;35.940;126.892;2024-01-30T05:39:12;13.50;1.00
11639;DHT22;5875;35.940;126.892;2024-01-30T05:41:39;13.80;1.00
11639;DHT22;5875;35.940;126.892;2024-01-30T05:44:06;13.60;1.00
11639;DHT22;5875;35.940;126.892;2024-01-30T05:46:35;13.70;1.00
11639;DHT22;5875;35.940;126.892;2024-01-30T05:49:02;13.50;1.00
11639;DHT22;5875;35.940;126.892;2024-01-30T05:51:29;13.70;1.00
11639;DHT22;5875;35.940;126.892;2024-01-30T05:53:56;13.60;1.00
11639;DHT22;5875;35.940;126.892;2024-01-30T05:56:23;13.40;1.00
11639;DHT22;5875;35.940;126.892;2024-01-30T05:58:50;13.40;1.00
11639;DHT22;5875;35.940;126.892;2024-01-30T06:01:17;13.20;1.00
11639;DHT22;5875;35.940;126.892;2024-01-30T06:03:44;13.20;1.00
11639;DHT22;5875;35.940;126.892;2024-01-30T06:06:11;13.10;1.00
11639;DHT22;5875;35.940;126.892;2024-01-30T06:08:38;13.10;1.00
11639;DHT22;5875;35.940;126.892;2024-01-30T06:11:06;13.10;1.00
11639;DHT22;5875;35.940;126.892;2024-01-30T06:13:33;13.20;1.00
11639;DHT22;5875;35.940;126.892;2024-01-30T06:16:03;13.20;1.00
11639;DHT22;5875;35.940;126.892;2024-01-30T06:18:30;13.00;1.00
11639;DHT22;5875;35.940;126.892;2024-01-30T06:20:57;13.30;1.00
11639;DHT22;5875;35.940;126.892;2024-01-30T06:23:24;13.10;1.00
11639;DHT22;5875;35.940;126.892;2024-01-30T06:25:51;13.20;1.00
11639;DHT22;5875;35.940;126.892;2024-01-30T06:28:18;13.10;1.00
11639;DHT22;5875;35.940;126.892;2024-01-30T06:30:46;13.00;1.00
11639;DHT22;5875;35.940;126.892;2024-01-30T06:33:13;12.80;1.00
11639;DHT22;5875;35.940;126.892;2024-01-30T06:35:41;12.90;1.00
11639;DHT22;5875;35.940;126.892;2024-01-30T06:38:08;12.90;1.00
11639;DHT22;5875;35.940;126.892;2024-01-30T06:40:35;13.00;1.00
11639;DHT22;5875;35.940;126.892;2024-01-30T06:43:03;12.90;1.00
11639;DHT22;5875;35.940;126.892;2024-01-30T06:45:31;13.00;1.00
11639;DHT22;5875;35.940;126.892;2024-01-30T06:47:58;13.00;1.00
11639;DHT22;5875;35.940;126.892;2024-01-30T06:50:25;13.10;1.00
11639;DHT22;5875;35.940;126.892;2024-01-30T06:52:52;13.20;1.00
11639;DHT22;5875;35.940;126.892;2024-01-30T06:55:19;13.10;1.00
11639;DHT22;5875;35.940;126.892;2024-01-30T06:57:46;13.30;1.00
11639;DHT22;5875;35.940;126.892;2024-01-30T07:00:17;13.10;1.00
11639;DHT22;5875;35.940;126.892;2024-01-30T07:02:46;13.00;1.00
11639;DHT22;5875;35.940;126.892;2024-01-30T07:05:16;12.80;1.00
11639;DHT22;5875;35.940;126.892;2024-01-30T07:07:43;12.80;1.00
11639;DHT22;5875;35.940;126.892;2024-01-30T07:10:11;12.90;1.00
11639;DHT22;5875;35.940;126.892;2024-01-30T07:12:38;13.00;1.00
11639;DHT22;5875;35.940;126.892;2024-01-30T07:15:05;13.00;1.00
11639;DHT22;5875;35.940;126.892;2024-01-30T07:17:36;12.80;1.00
11639;DHT22;5875;35.940;126.892;2024-01-30T07:20:04;12.90;1.00
11639;DHT22;5875;35.940;126.892;2024-01-30T07:22:31;13.00;1.00
11639;DHT22;5875;35.940;126.892;2024-01-30T07:25:01;12.90;1.00
11639;DHT22;5875;35.940;126.892;2024-01-30T07:27:31;12.60;1.00
11639;DHT22;5875;35.940;126.892;2024-01-30T07:29:58;12.60;1.00
11639;DHT22;5875;35.940;126.892;2024-01-30T07:32:25;12.50;1.00
11639;DHT22;5875;35.940;126.892;2024-01-30T07:34:52;12.40;1.00
11639;DHT22;5875;35.940;126.892;2024-01-30T07:37:19;12.40;1.00
11639;DHT22;5875;35.940;126.892;2024-01-30T07:39:47;12.40;1.00
11639;DHT22;5875;35.940;126.892;2024-01-30T07:42:14;12.60;1.00
11639;DHT22;5875;35.940;126.892;2024-01-30T07:44:42;12.60;1.00
11639;DHT22;5875;35.940;126.892;2024-01-30T07:47:09;12.50;1.00
11639;DHT22;5875;35.940;126.892;2024-01-30T07:49:39;12.50;1.00
11639;DHT22;5875;35.940;126.892;2024-01-30T07:52:06;12.60;1.00
11639;DHT22;5875;35.940;126.892;2024-01-30T07:54:33;12.40;1.00
11639;DHT22;5875;35.940;126.892;2024-01-30T07:57:01;12.40;1.00
11639;DHT22;5875;35.940;126.892;2024-01-30T07:59:28;12.40;1.00
11639;DHT22;5875;35.940;126.892;2024-01-30T08:01:55;12.30;1.00
11639;DHT22;5875;35.940;126.892;2024-01-30T08:04:22;12.30;1.00
11639;DHT22;5875;35.940;126.892;2024-01-30T08:06:49;12.10;1.00
11639;DHT22;5875;35.940;126.892;2024-01-30T08:09:17;12.10;1.00
11639;DHT22;5875;35.940;126.892;2024-01-30T08:11:44;11.80;1.00
11639;DHT22;5875;35.940;126.892;2024-01-30T08:14:11;11.80;1.00
11639;DHT22;5875;35.940;126.892;2024-01-30T08:16:43;11.70;1.00
11639;DHT22;5875;35.940;126.892;2024-01-30T08:19:10;11.60;1.00
11639;DHT22;5875;35.940;126.892;2024-01-30T08:21:40;11.50;1.00
11639;DHT22;5875;35.940;126.892;2024-01-30T08:24:08;11.50;1.00
11639;DHT22;5875;35.940;126.892;2024-01-30T08:26:35;11.50;1.00
11639;DHT22;5875;35.940;126.892;2024-01-30T08:29:03;11.40;1.00
11639;DHT22;5875;35.940;126.892;2024-01-30T08:31:30;11.20;1.00
11639;DHT22;5875;35.940;126.892;2024-01-30T08:33:57;11.00;1.00
11639;DHT22;5875;35.940;126.892;2024-01-30T08:36:25;11.00;1.00
11639;DHT22;5875;35.940;126.892;2024-01-30T08:38:52;10.80;1.00
11639;DHT22;5875;35.940;126.892;2024-01-30T08:41:20;10.70;1.00
11639;DHT22;5875;35.940;126.892;2024-01-30T08:43:47;10.70;1.00
11639;DHT22;5875;35.940;126.892;2024-01-30T08:46:18;10.40;1.00
11639;DHT22;5875;35.940;126.892;2024-01-30T08:48:45;10.30;1.00
11639;DHT22;5875;35.940;126.892;2024-01-30T08:51:14;10.30;1.00
11639;DHT22;5875;35.940;126.892;2024-01-30T08:53:41;10.20;1.00
11639;DHT22;5875;35.940;126.892;2024-01-30T08:56:09;10.00;1.00
11639;DHT22;5875;35.940;126.892;2024-01-30T08:58:36;9.90;1.00
11639;DHT22;5875;35.940;126.892;2024-01-30T09:01:03;9.80;1.00
11639;DHT22;5875;35.940;126.892;2024-01-30T09:03:32;9.70;1.00
11639;DHT22;5875;35.940;126.892;2024-01-30T09:05:59;9.50;1.00
11639;DHT22;5875;35.940;126.892;2024-01-30T09:08:26;9.50;1.00
11639;DHT22;5875;35.940;126.892;2024-01-30T09:10:53;9.40;1.00
11639;DHT22;5875;35.940;126.892;2024-01-30T09:13:21;9.30;1.00
11639;DHT22;5875;35.940;126.892;2024-01-30T09:15:48;9.20;1.00
11639;DHT22;5875;35.940;126.892;2024-01-30T09:18:15;9.10;1.00
11639;DHT22;5875;35.940;126.892;2024-01-30T09:20:42;9.00;1.00
11639;DHT22;5875;35.940;126.892;2024-01-30T09:23:09;8.70;1.00
11639;DHT22;5875;35.940;126.892;2024-01-30T09:25:37;8.70;1.00
11639;DHT22;5875;35.940;126.892;2024-01-30T09:28:04;8.60;1.00
11639;DHT22;5875;35.940;126.892;2024-01-30T09:30:31;8.50;1.00
11639;DHT22;5875;35.940;126.892;2024-01-30T09:32:58;8.50;1.00
11639;DHT22;5875;35.940;126.892;2024-01-30T09:35:26;8.40;1.00
11639;DHT22;5875;35.940;126.892;2024-01-30T09:37:53;8.20;1.00
11639;DHT22;5875;35.940;126.892;2024-01-30T09:40:20;8.10;1.00
11639;DHT22;5875;35.940;126.892;2024-01-30T09:42:47;8.10;1.00
11639;DHT22;5875;35.940;126.892;2024-01-30T09:45:18;8.00;1.00
11639;DHT22;5875;35.940;126.892;2024-01-30T09:47:46;7.80;1.00
11639;DHT22;5875;35.940;126.892;2024-01-30T09:50:14;7.70;1.00
11639;DHT22;5875;35.940;126.892;2024-01-30T09:52:44;7.60;1.00
11639;DHT22;5875;35.940;126.892;2024-01-30T09:55:11;7.50;1.00
11639;DHT22;5875;35.940;126.892;2024-01-30T09:57:38;7.40;1.00
11639;DHT22;5875;35.940;126.892;2024-01-30T10:00:06;7.40;1.00
11639;DHT22;5875;35.940;126.892;2024-01-30T10:02:36;7.50;1.00
11639;DHT22;5875;35.940;126.892;2024-01-30T10:05:04;7.40;1.00
11639;DHT22;5875;35.940;126.892;2024-01-30T10:07:32;7.30;1.00
11639;DHT22;5875;35.940;126.892;2024-01-30T10:09:59;7.20;1.00
11639;DHT22;5875;35.940;126.892;2024-01-30T10:12:30;7.20;1.00
11639;DHT22;5875;35.940;126.892;2024-01-30T10:14:57;7.20;1.20
11639;DHT22;5875;35.940;126.892;2024-01-30T10:17:25;7.30;3.00
11639;DHT22;5875;35.940;126.892;2024-01-30T10:19:53;7.20;4.80
11639;DHT22;5875;35.940;126.892;2024-01-30T10:22:20;7.10;7.10
11639;DHT22;5875;35.940;126.892;2024-01-30T10:24:48;7.10;8.30
11639;DHT22;5875;35.940;126.892;2024-01-30T10:27:16;7.00;9.70
11639;DHT22;5875;35.940;126.892;2024-01-30T10:29:43;6.80;15.40
11639;DHT22;5875;35.940;126.892;2024-01-30T10:32:10;6.70;21.40
11639;DHT22;5875;35.940;126.892;2024-01-30T10:34:37;6.70;22.60
11639;DHT22;5875;35.940;126.892;2024-01-30T10:37:09;6.50;25.00
11639;DHT22;5875;35.940;126.892;2024-01-30T10:39:42;6.50;29.20
11639;DHT22;5875;35.940;126.892;2024-01-30T10:42:16;6.50;29.00
11639;DHT22;5875;35.940;126.892;2024-01-30T10:45:08;6.50;29.10
11639;DHT22;5875;35.940;126.892;2024-01-30T10:47:36;6.50;31.40
11639;DHT22;5875;35.940;126.892;2024-01-30T10:50:07;6.40;34.60
11639;DHT22;5875;35.940;126.892;2024-01-30T10:52:37;6.40;37.20
11639;DHT22;5875;35.940;126.892;2024-01-30T10:55:05;6.30;40.20
11639;DHT22;5875;35.940;126.892;2024-01-30T10:57:36;6.10;46.50
11639;DHT22;5875;35.940;126.892;2024-01-30T11:00:14;6.00;51.20
11639;DHT22;5875;35.940;126.892;2024-01-30T11:02:44;6.10;51.90
11639;DHT22;5875;35.940;126.892;2024-01-30T11:05:14;6.00;54.00
11639;DHT22;5875;35.940;126.892;2024-01-30T11:07:42;6.10;51.90
11639;DHT22;5875;35.940;126.892;2024-01-30T11:10:09;6.00;54.30
11639;DHT22;5875;35.940;126.892;2024-01-30T11:12:41;6.00;59.00
11639;DHT22;5875;35.940;126.892;2024-01-30T11:15:14;5.80;64.40
11639;DHT22;5875;35.940;126.892;2024-01-30T11:17:49;5.80;66.70
11639;DHT22;5875;35.940;126.892;2024-01-30T11:20:27;5.70;71.90
11639;DHT22;5875;35.940;126.892;2024-01-30T11:22:59;5.70;71.00
11639;DHT22;5875;35.940;126.892;2024-01-30T11:25:32;5.70;65.20
11639;DHT22;5875;35.940;126.892;2024-01-30T11:28:00;5.60;66.60
11639;DHT22;5875;35.940;126.892;2024-01-30T11:30:28;5.70;73.70
11639;DHT22;5875;35.940;126.892;2024-01-30T11:33:11;5.70;68.80
11639;DHT22;5875;35.940;126.892;2024-01-30T11:35:41;5.60;43.10
11639;DHT22;5875;35.940;126.892;2024-01-30T11:38:18;5.40;46.50
11639;DHT22;5875;35.940;126.892;2024-01-30T11:40:46;5.30;43.00
11639;DHT22;5875;35.940;126.892;2024-01-30T11:43:14;5.40;46.70
11639;DHT22;5875;35.940;126.892;2024-01-30T11:45:44;5.50;44.20
11639;DHT22;5875;35.940;126.892;2024-01-30T11:48:15;5.30;38.60
11639;DHT22;5875;35.940;126.892;2024-01-30T11:50:42;5.20;43.90
11639;DHT22;5875;35.940;126.892;2024-01-30T11:53:12;5.10;51.90
11639;DHT22;5875;35.940;126.892;2024-01-30T11:55:40;5.00;55.30
11639;DHT22;5875;35.940;126.892;2024-01-30T11:58:07;4.90;65.80
11639;DHT22;5875;35.940;126.892;2024-01-30T12:00:34;4.70;88.40
11639;DHT22;5875;35.940;126.892;2024-01-30T12:03:02;4.50;97.20
11639;DHT22;5875;35.940;126.892;2024-01-30T12:05:31;4.60;99.90
11639;DHT22;5875;35.940;126.892;2024-01-30T12:07:58;4.60;99.20
11639;DHT22;5875;35.940;126.892;2024-01-30T12:10:25;4.40;99.90
11639;DHT22;5875;35.940;126.892;2024-01-30T12:12:55;4.50;99.90
11639;DHT22;5875;35.940;126.892;2024-01-30T12:15:26;4.50;99.90
11639;DHT22;5875;35.940;126.892;2024-01-30T12:18:04;4.50;99.90
11639;DHT22;5875;35.940;126.892;2024-01-30T12:20:32;4.50;99.90
11639;DHT22;5875;35.940;126.892;2024-01-30T12:22:59;4.50;99.90
11639;DHT22;5875;35.940;126.892;2024-01-30T12:25:27;4.50;99.90
11639;DHT22;5875;35.940;126.892;2024-01-30T12:27:54;4.30;95.70
11639;DHT22;5875;35.940;126.892;2024-01-30T12:30:22;4.40;90.40
11639;DHT22;5875;35.940;126.892;2024-01-30T12:32:50;4.40;79.90
11639;DHT22;5875;35.940;126.892;2024-01-30T12:35:19;4.50;79.70
11639;DHT22;5875;35.940;126.892;2024-01-30T12:37:50;4.40;81.70
11639;DHT22;5875;35.940;126.892;2024-01-30T12:40:17;4.30;83.70
11639;DHT22;5875;35.940;126.892;2024-01-30T12:42:47;4.30;89.40
11639;DHT22;5875;35.940;126.892;2024-01-30T12:45:16;4.30;90.00
11639;DHT22;5875;35.940;126.892;2024-01-30T12:47:49;4.30;86.50
11639;DHT22;5875;35.940;126.892;2024-01-30T12:50:16;4.40;86.20
11639;DHT22;5875;35.940;126.892;2024-01-30T12:52:44;4.30;74.90
11639;DHT22;5875;35.940;126.892;2024-01-30T12:55:12;4.30;71.20
11639;DHT22;5875;35.940;126.892;2024-01-30T12:57:39;4.30;74.90
11639;DHT22;5875;35.940;126.892;2024-01-30T13:00:07;4.20;73.40
11639;DHT22;5875;35.940;126.892;2024-01-30T13:02:37;4.20;72.90
11639;DHT22;5875;35.940;126.892;2024-01-30T13:05:05;4.10;71.60
11639;DHT22;5875;35.940;126.892;2024-01-30T13:07:32;4.10;72.60
11639;DHT22;5875;35.940;126.892;2024-01-30T13:10:00;4.00;74.30
11639;DHT22;5875;35.940;126.892;2024-01-30T13:12:30;4.00;75.30
11639;DHT22;5875;35.940;126.892;2024-01-30T13:15:00;4.00;73.30
11639;DHT22;5875;35.940;126.892;2024-01-30T13:17:31;4.00;72.00
11639;DHT22;5875;35.940;126.892;2024-01-30T13:19:58;4.10;67.60
11639;DHT22;5875;35.940;126.892;2024-01-30T13:22:25;4.20;60.70
11639;DHT22;5875;35.940;126.892;2024-01-30T13:24:52;4.20;59.60
11639;DHT22;5875;35.940;126.892;2024-01-30T13:27:21;4.30;65.00
11639;DHT22;5875;35.940;126.892;2024-01-30T13:29:48;4.20;69.90
11639;DHT22;5875;35.940;126.892;2024-01-30T13:32:15;4.20;77.50
11639;DHT22;5875;35.940;126.892;2024-01-30T13:34:48;4.20;81.00
11639;DHT22;5875;35.940;126.892;2024-01-30T13:37:15;4.20;86.30
11639;DHT22;5875;35.940;126.892;2024-01-30T13:39:42;4.10;87.40
11639;DHT22;5875;35.940;126.892;2024-01-30T13:42:09;4.20;89.50
11639;DHT22;5875;35.940;126.892;2024-01-30T13:44:36;4.20;91.30
11639;DHT22;5875;35.940;126.892;2024-01-30T13:47:03;4.10;95.40
11639;DHT22;5875;35.940;126.892;2024-01-30T13:49:33;4.00;99.90
11639;DHT22;5875;35.940;126.892;2024-01-30T13:52:00;4.00;99.90
11639;DHT22;5875;35.940;126.892;2024-01-30T13:54:27;4.10;99.90
11639;DHT22;5875;35.940;126.892;2024-01-30T13:56:58;4.00;99.90
11639;DHT22;5875;35.940;126.892;2024-01-30T13:59:25;4.00;99.90
11639;DHT22;5875;35.940;126.892;2024-01-30T14:01:52;4.00;99.90
11639;DHT22;5875;35.940;126.892;2024-01-30T14:04:19;4.00;99.90
11639;DHT22;5875;35.940;126.892;2024-01-30T14:06:46;4.00;99.90
11639;DHT22;5875;35.940;126.892;2024-01-30T14:09:14;3.90;99.90
11639;DHT22;5875;35.940;126.892;2024-01-30T14:11:42;4.00;99.90
11639;DHT22;5875;35.940;126.892;2024-01-30T14:14:09;4.00;99.90
11639;DHT22;5875;35.940;126.892;2024-01-30T14:16:36;4.00;99.90
11639;DHT22;5875;35.940;126.892;2024-01-30T14:19:04;4.00;99.90
11639;DHT22;5875;35.940;126.892;2024-01-30T14:21:31;4.00;99.90
11639;DHT22;5875;35.940;126.892;2024-01-30T14:23:58;4.00;99.90
11639;DHT22;5875;35.940;126.892;2024-01-30T14:26:25;4.10;99.90
11639;DHT22;5875;35.940;126.892;2024-01-30T14:28:52;4.10;99.90
11639;DHT22;5875;35.940;126.892;2024-01-30T14:31:19;4.10;99.90
11639;DHT22;5875;35.940;126.892;2024-01-30T14:33:47;4.20;99.90
11639;DHT22;5875;35.940;126.892;2024-01-30T14:36:14;4.20;99.90
11639;DHT22;5875;35.940;126.892;2024-01-30T14:38:41;4.20;99.90
11639;DHT22;5875;35.940;126.892;2024-01-30T14:41:08;4.20;97.70
11639;DHT22;5875;35.940;126.892;2024-01-30T14:43:35;4.20;96.50
11639;DHT22;5875;35.940;126.892;2024-01-30T14:46:03;4.20;95.90
11639;DHT22;5875;35.940;126.892;2024-01-30T14:48:33;4.10;92.50
11639;DHT22;5875;35.940;126.892;2024-01-30T14:51:00;4.20;87.40
11639;DHT22;5875;35.940;126.892;2024-01-30T14:53:27;4.20;88.20
11639;DHT22;5875;35.940;126.892;2024-01-30T14:55:54;4.20;89.40
11639;DHT22;5875;35.940;126.892;2024-01-30T14:58:21;4.20;90.40
11639;DHT22;5875;35.940;126.892;2024-01-30T15:00:48;4.30;85.30
11639;DHT22;5875;35.940;126.892;2024-01-30T15:03:16;4.20;82.40
11639;DHT22;5875;35.940;126.892;2024-01-30T15:05:43;4.20;78.60
11639;DHT22;5875;35.940;126.892;2024-01-30T15:08:10;4.30;79.30
11639;DHT22;5875;35.940;126.892;2024-01-30T15:10:37;4.30;81.90
11639;DHT22;5875;35.940;126.892;2024-01-30T15:13:04;4.30;89.10
11639;DHT22;5875;35.940;126.892;2024-01-30T15:15:31;4.20;92.30
11639;DHT22;5875;35.940;126.892;2024-01-30T15:17:58;4.30;94.80
11639;DHT22;5875;35.940;126.892;2024-01-30T15:20:28;4.30;95.80
11639;DHT22;5875;35.940;126.892;2024-01-30T15:22:58;4.20;98.00
11639;DHT22;5875;35.940;126.892;2024-01-30T15:25:25;4.20;97.10
11639;DHT22;5875;35.940;126.892;2024-01-30T15:27:52;4.20;98.00
11639;DHT22;5875;35.940;126.892;2024-01-30T15:30:19;4.20;99.30
11639;DHT22;5875;35.940;126.892;2024-01-30T15:32:46;4.30;99.90
11639;DHT22;5875;35.940;126.892;2024-01-30T15:35:14;4.20;99.90
11639;DHT22;5875;35.940;126.892;2024-01-30T15:37:41;4.20;99.90